createdAt,value
2017-12-01T00:01:52.524Z,9.00
2017-12-01T00:04:20.018Z,11.33
2017-12-01T00:06:48.299Z,11.77
2017-12-01T00:09:15.794Z,9.80
2017-12-01T00:11:44.080Z,12.00
2017-12-01T00:14:12.338Z,8.70
2017-12-01T00:16:39.865Z,11.90
2017-12-01T00:19:07.363Z,12.30
2017-12-01T00:21:35.650Z,13.33
2017-12-01T00:24:03.907Z,14.83
2017-12-01T00:26:32.189Z,14.10
2017-12-01T00:29:00.453Z,12.60
2017-12-01T00:31:27.958Z,13.80
2017-12-01T00:33:55.469Z,14.30
2017-12-01T00:36:22.970Z,11.23
2017-12-01T00:38:50.496Z,17.90
2017-12-01T00:41:18.782Z,12.70
2017-12-01T00:43:47.067Z,9.87
2017-12-01T00:46:14.575Z,11.10
2017-12-01T00:48:42.079Z,10.43
2017-12-01T00:51:09.594Z,9.80
2017-12-01T00:53:37.094Z,9.20
2017-12-01T00:56:04.606Z,9.60
2017-12-01T00:58:32.119Z,10.80
2017-12-01T01:00:59.655Z,8.73
2017-12-01T01:03:27.947Z,10.87
2017-12-01T01:05:56.200Z,7.17
2017-12-01T01:08:24.491Z,9.27
2017-12-01T01:10:53.736Z,9.17
2017-12-01T01:13:21.327Z,13.03
2017-12-01T01:15:48.826Z,13.90
2017-12-01T01:18:16.362Z,16.50
2017-12-01T01:20:44.635Z,14.93
2017-12-01T01:23:12.902Z,15.57
2017-12-01T01:25:40.414Z,13.67
2017-12-01T01:28:07.919Z,15.60
2017-12-01T01:30:36.199Z,14.00
2017-12-01T01:33:04.458Z,12.83
2017-12-01T01:35:32.003Z,11.73
2017-12-01T01:37:59.495Z,9.63
2017-12-01T01:40:27.759Z,9.07
2017-12-01T01:42:55.270Z,8.50
2017-12-01T01:45:22.763Z,9.37
2017-12-01T01:47:50.289Z,9.90
2017-12-01T01:50:17.799Z,10.13
2017-12-01T01:52:46.095Z,10.80
2017-12-01T01:55:13.626Z,10.03
2017-12-01T01:57:41.131Z,12.23
2017-12-01T02:00:09.457Z,10.70
2017-12-01T02:02:36.959Z,15.30
2017-12-01T02:05:04.459Z,16.80
2017-12-01T02:07:31.975Z,21.13
2017-12-01T02:09:59.475Z,19.23
2017-12-01T02:12:26.992Z,19.97
2017-12-01T02:14:54.498Z,21.30
2017-12-01T02:17:22.020Z,19.73
2017-12-01T02:19:49.554Z,23.07
2017-12-01T02:22:17.086Z,25.27
2017-12-01T02:24:44.590Z,23.40
2017-12-01T02:27:12.090Z,87.93
2017-12-01T02:29:39.626Z,22.50
2017-12-01T02:32:07.135Z,25.20
2017-12-01T02:34:35.451Z,19.33
2017-12-01T02:37:02.973Z,20.77
2017-12-01T02:39:30.475Z,20.63
2017-12-01T02:41:58.020Z,22.40
2017-12-01T02:44:25.536Z,19.90
2017-12-01T02:46:53.844Z,19.47
2017-12-01T02:49:21.362Z,17.50
2017-12-01T02:51:49.625Z,18.30
2017-12-01T02:54:17.151Z,15.90
2017-12-01T02:56:44.652Z,20.93
2017-12-01T02:59:12.162Z,15.40
2017-12-01T03:01:39.659Z,15.83
2017-12-01T03:04:07.183Z,17.00
2017-12-01T03:06:34.687Z,13.50
2017-12-01T03:09:03.001Z,13.70
2017-12-01T03:11:30.491Z,19.80
2017-12-01T03:13:57.990Z,14.23
2017-12-01T03:16:26.266Z,13.40
2017-12-01T03:18:54.535Z,16.30
2017-12-01T03:21:22.838Z,17.40
2017-12-01T03:23:50.341Z,19.20
2017-12-01T03:26:17.846Z,14.33
2017-12-01T03:28:45.362Z,10.83
2017-12-01T03:31:12.867Z,16.60
2017-12-01T03:33:40.379Z,10.50
2017-12-01T03:36:07.879Z,12.10
2017-12-01T03:38:35.374Z,11.93
2017-12-01T03:41:02.895Z,12.87
2017-12-01T03:43:30.399Z,12.90
2017-12-01T03:45:57.906Z,9.70
2017-12-01T03:48:26.171Z,10.17
2017-12-01T03:50:54.441Z,12.13
2017-12-01T03:53:22.731Z,7.57
2017-12-01T03:55:50.995Z,8.37
2017-12-01T03:58:19.284Z,11.20
2017-12-01T04:00:47.550Z,15.63
2017-12-01T04:03:15.846Z,13.97
2017-12-01T04:05:43.362Z,16.27
2017-12-01T04:08:10.926Z,12.60
2017-12-01T04:10:39.571Z,11.80
2017-12-01T04:13:07.097Z,16.13
2017-12-01T04:15:34.659Z,16.27
2017-12-01T04:18:02.194Z,12.40
2017-12-01T04:20:30.466Z,13.60
2017-12-01T04:22:57.964Z,14.10
2017-12-01T04:25:25.491Z,12.53
2017-12-01T04:27:53.758Z,14.67
2017-12-01T04:30:21.270Z,12.53
2017-12-01T04:32:48.770Z,13.50
2017-12-01T04:35:16.287Z,11.33
2017-12-01T04:37:43.783Z,12.00
2017-12-01T04:40:11.283Z,13.00
2017-12-01T04:42:38.816Z,11.90
2017-12-01T04:45:07.091Z,17.03
2017-12-01T04:47:35.376Z,15.53
2017-12-01T04:50:03.651Z,12.33
2017-12-01T04:52:31.942Z,13.40
2017-12-01T04:54:59.439Z,10.53
2017-12-01T04:57:26.935Z,12.10
2017-12-01T04:59:55.215Z,12.53
2017-12-01T05:02:23.478Z,10.80
2017-12-01T05:04:50.994Z,13.03
2017-12-01T05:07:18.499Z,11.10
2017-12-01T05:09:46.803Z,11.80
2017-12-01T05:12:14.309Z,8.93
2017-12-01T05:14:41.812Z,9.80
2017-12-01T05:17:09.331Z,13.27
2017-12-01T05:19:36.835Z,16.17
2017-12-01T05:22:04.358Z,13.27
2017-12-01T05:24:31.859Z,11.00
2017-12-01T05:26:59.407Z,11.90
2017-12-01T05:29:26.912Z,16.80
2017-12-01T05:31:54.420Z,14.60
2017-12-01T05:34:21.943Z,15.03
2017-12-01T05:36:49.450Z,10.00
2017-12-01T05:39:17.017Z,7.30
2017-12-01T05:41:44.519Z,7.37
2017-12-01T05:44:12.944Z,6.30
2017-12-01T05:46:40.453Z,6.27
2017-12-01T05:49:08.874Z,5.83
2017-12-01T05:51:36.505Z,6.27
2017-12-01T05:54:04.003Z,9.40
2017-12-01T05:56:31.524Z,6.50
2017-12-01T05:58:59.790Z,7.53
2017-12-01T06:01:27.309Z,8.37
2017-12-01T06:03:54.812Z,14.07
2017-12-01T06:06:22.351Z,21.60
2017-12-01T06:08:49.851Z,9.47
2017-12-01T06:11:18.119Z,15.60
2017-12-01T06:13:46.404Z,46.70
2017-12-01T06:16:14.672Z,35.33
2017-12-01T06:18:42.977Z,17.20
2017-12-01T06:21:10.474Z,8.37
2017-12-01T06:23:38.009Z,9.63
2017-12-01T06:26:05.506Z,8.10
2017-12-01T06:28:33.008Z,8.13
2017-12-01T06:31:00.539Z,10.23
2017-12-01T06:33:28.802Z,8.13
2017-12-01T06:35:57.084Z,10.10
2017-12-01T06:38:25.384Z,7.20
2017-12-01T06:40:52.906Z,6.13
2017-12-01T06:43:20.404Z,9.13
2017-12-01T06:45:47.947Z,10.60
2017-12-01T06:48:16.214Z,11.27
2017-12-01T06:50:44.487Z,14.50
2017-12-01T06:53:12.799Z,11.70
2017-12-01T06:55:40.303Z,10.20
2017-12-01T06:58:07.823Z,7.77
2017-12-01T07:00:35.331Z,7.97
2017-12-01T07:03:03.636Z,5.17
2017-12-01T07:05:31.139Z,5.30
2017-12-01T07:07:58.656Z,4.77
2017-12-01T07:10:26.991Z,7.50
2017-12-01T07:12:55.339Z,5.70
2017-12-01T07:15:22.864Z,3.87
2017-12-01T07:17:50.371Z,9.07
2017-12-01T07:20:17.905Z,24.30
2017-12-01T07:22:45.414Z,11.87
2017-12-01T07:25:13.687Z,12.00
2017-12-01T07:27:41.971Z,8.63
2017-12-01T07:30:10.247Z,5.30
2017-12-01T07:32:38.535Z,4.90
2017-12-01T07:35:06.052Z,6.13
2017-12-01T07:37:33.591Z,6.97
2017-12-01T07:40:01.095Z,4.10
2017-12-01T07:42:29.370Z,3.97
2017-12-01T07:45:03.258Z,4.53
2017-12-01T07:47:30.767Z,4.90
2017-12-01T07:49:58.283Z,10.47
2017-12-01T07:52:25.787Z,10.60
2017-12-01T07:54:53.314Z,11.43
2017-12-01T07:57:20.823Z,8.37
2017-12-01T07:59:48.351Z,10.90
2017-12-01T08:02:15.857Z,10.70
2017-12-01T08:04:43.367Z,5.67
2017-12-01T08:07:10.874Z,3.73
2017-12-01T08:09:38.388Z,3.60
2017-12-01T08:12:05.909Z,4.00
2017-12-01T08:14:34.184Z,3.87
2017-12-01T08:17:13.587Z,6.93
2017-12-01T08:19:41.094Z,13.00
2017-12-01T08:22:21.224Z,16.17
2017-12-01T08:25:00.627Z,26.10
2017-12-01T08:27:28.151Z,23.77
2017-12-01T08:29:55.656Z,28.70
2017-12-01T08:32:23.211Z,19.93
2017-12-01T08:34:51.482Z,14.37
2017-12-01T08:37:18.992Z,11.13
2017-12-01T08:39:48.291Z,14.17
2017-12-01T08:42:16.623Z,5.63
2017-12-01T08:44:44.154Z,9.30
2017-12-01T08:47:11.661Z,8.93
2017-12-01T08:49:39.186Z,4.80
2017-12-01T08:52:06.693Z,14.03
2017-12-01T08:54:35.003Z,13.10
2017-12-01T08:57:02.508Z,13.23
2017-12-01T08:59:30.011Z,12.07
2017-12-01T09:01:57.531Z,5.73
2017-12-01T09:04:25.038Z,6.63
2017-12-01T09:06:52.551Z,4.57
2017-12-01T09:09:20.051Z,7.07
2017-12-01T09:11:47.578Z,4.60
2017-12-01T09:14:15.843Z,6.50
2017-12-01T09:16:43.347Z,5.90
2017-12-01T09:19:10.863Z,5.43
2017-12-01T09:21:39.139Z,10.07
2017-12-01T09:24:07.427Z,7.10
2017-12-01T09:26:35.694Z,26.23
2017-12-01T09:29:03.988Z,21.93
2017-12-01T09:31:32.264Z,19.57
2017-12-01T09:33:59.806Z,14.00
2017-12-01T09:36:28.071Z,10.50
2017-12-01T09:38:55.570Z,6.93
2017-12-01T09:41:23.096Z,11.27
2017-12-01T09:43:51.363Z,9.07
2017-12-01T09:46:18.878Z,10.40
2017-12-01T09:48:46.370Z,6.87
2017-12-01T09:51:13.903Z,9.07
2017-12-01T09:53:41.395Z,8.23
2017-12-01T09:56:08.902Z,9.90
2017-12-01T09:58:36.411Z,6.80
2017-12-01T10:01:03.911Z,7.03
2017-12-01T10:03:31.430Z,6.13
2017-12-01T10:05:58.933Z,9.93
2017-12-01T10:08:26.447Z,7.07
2017-12-01T10:10:53.953Z,9.30
2017-12-01T10:13:21.497Z,6.20
2017-12-01T10:15:49.012Z,4.87
2017-12-01T10:18:16.528Z,6.50
2017-12-01T10:20:44.079Z,4.37
2017-12-01T10:23:11.588Z,4.57
2017-12-01T10:25:39.104Z,3.20
2017-12-01T10:28:06.608Z,4.50
2017-12-01T10:30:34.143Z,3.90
2017-12-01T10:33:01.639Z,3.27
2017-12-01T10:35:29.903Z,5.10
2017-12-01T10:37:57.415Z,7.23
2017-12-01T10:40:24.911Z,7.10
2017-12-01T10:42:52.423Z,3.93
2017-12-01T10:45:19.918Z,2.60
2017-12-01T10:47:47.447Z,5.50
2017-12-01T10:50:14.948Z,5.80
2017-12-01T10:52:42.439Z,6.13
2017-12-01T10:55:09.948Z,2.90
2017-12-01T10:57:37.448Z,4.47
2017-12-01T11:00:04.966Z,5.53
2017-12-01T11:02:32.459Z,4.10
2017-12-01T11:05:00.768Z,2.57
2017-12-01T11:07:28.275Z,3.73
2017-12-01T11:09:55.779Z,2.43
2017-12-01T11:12:23.290Z,3.27
2017-12-01T11:14:50.783Z,2.60
2017-12-01T11:17:18.295Z,4.03
2017-12-01T11:19:45.786Z,7.20
2017-12-01T11:22:14.080Z,3.20
2017-12-01T11:24:41.579Z,3.30
2017-12-01T11:27:09.071Z,2.07
2017-12-01T11:29:37.352Z,2.60
2017-12-01T11:32:04.862Z,2.70
2017-12-01T11:34:32.378Z,2.77
2017-12-01T11:36:59.878Z,2.37
2017-12-01T11:39:27.418Z,2.20
2017-12-01T11:41:54.942Z,3.73
2017-12-01T11:44:23.929Z,1.20
2017-12-01T11:46:51.471Z,3.83
2017-12-01T11:49:19.039Z,1.83
2017-12-01T11:51:46.567Z,5.30
2017-12-01T11:54:14.059Z,1.90
2017-12-01T11:56:42.343Z,2.97
2017-12-01T11:59:10.608Z,1.87
2017-12-01T12:01:38.883Z,1.67
2017-12-01T12:04:07.155Z,2.87
2017-12-01T12:06:34.680Z,3.03
2017-12-01T12:09:02.175Z,4.50
2017-12-01T12:11:30.468Z,3.43
2017-12-01T12:13:57.963Z,2.97
2017-12-01T12:16:25.491Z,4.50
2017-12-01T12:18:52.991Z,2.70
2017-12-01T12:21:20.489Z,2.40
2017-12-01T12:23:49.261Z,3.47
2017-12-01T12:26:16.804Z,4.07
2017-12-01T12:28:44.423Z,4.17
2017-12-01T12:31:12.855Z,4.30
2017-12-01T12:33:40.543Z,5.83
2017-12-01T12:36:08.938Z,1.90
2017-12-01T12:38:36.485Z,2.33
2017-12-01T12:41:04.755Z,4.63
2017-12-01T12:43:33.024Z,4.73
2017-12-01T12:46:01.299Z,3.73
2017-12-01T12:48:29.039Z,6.67
2017-12-01T12:50:56.559Z,6.40
2017-12-01T12:53:24.059Z,4.43
2017-12-01T12:55:51.592Z,4.57
2017-12-01T12:58:19.091Z,4.47
2017-12-01T13:00:47.355Z,4.70
2017-12-01T13:03:14.871Z,9.03
2017-12-01T13:05:42.376Z,6.47
2017-12-01T13:08:09.890Z,6.83
2017-12-01T13:10:37.404Z,8.57
2017-12-01T13:13:04.952Z,6.80
2017-12-01T13:15:33.629Z,7.50
2017-12-01T13:18:01.127Z,7.30
2017-12-01T13:20:28.637Z,6.70
2017-12-01T13:22:56.139Z,10.17
2017-12-01T13:25:24.023Z,7.27
2017-12-01T13:27:51.551Z,6.20
2017-12-01T13:30:19.853Z,8.57
2017-12-01T13:32:47.396Z,9.53
2017-12-01T13:35:14.943Z,8.87
2017-12-01T13:37:43.200Z,7.33
2017-12-01T13:40:10.695Z,6.80
2017-12-01T13:45:42.220Z,7.47
2017-12-01T13:48:09.835Z,8.30
2017-12-01T13:50:37.439Z,10.27
2017-12-01T13:53:06.235Z,9.53
2017-12-01T13:55:33.888Z,7.90
2017-12-01T13:58:01.471Z,10.93
2017-12-01T14:00:29.861Z,10.27
2017-12-01T14:02:58.136Z,9.30
2017-12-01T14:05:26.415Z,9.93
2017-12-01T14:07:54.670Z,9.63
2017-12-01T14:10:22.970Z,11.37
2017-12-01T14:12:51.230Z,10.70
2017-12-01T14:15:19.504Z,10.60
2017-12-01T14:17:47.792Z,9.50
2017-12-01T14:20:16.082Z,8.67
2017-12-01T14:22:43.600Z,11.80
2017-12-01T14:25:11.100Z,12.60
2017-12-01T14:27:38.622Z,13.47
2017-12-01T14:30:06.123Z,10.97
2017-12-01T14:32:33.660Z,11.70
2017-12-01T14:35:01.940Z,10.40
2017-12-01T14:37:30.202Z,11.43
2017-12-01T14:39:58.495Z,12.17
2017-12-01T14:42:26.007Z,16.30
2017-12-01T14:44:53.676Z,12.87
2017-12-01T14:47:22.041Z,12.90
2017-12-01T14:49:49.559Z,11.93
2017-12-01T14:52:17.059Z,12.10
2017-12-01T14:54:44.558Z,9.27
2017-12-01T14:57:12.851Z,12.60
2017-12-01T14:59:40.359Z,12.67
2017-12-01T15:02:07.883Z,13.90
2017-12-01T15:04:35.396Z,20.70
2017-12-01T15:07:03.685Z,12.80
2017-12-01T15:09:31.951Z,12.60
2017-12-01T15:12:00.891Z,15.00
2017-12-01T15:14:28.400Z,19.20
2017-12-01T15:16:56.684Z,14.57
2017-12-01T15:19:24.975Z,14.77
2017-12-01T15:21:52.488Z,15.97
2017-12-01T15:24:20.019Z,13.20
2017-12-01T15:26:47.528Z,14.80
2017-12-01T15:29:15.819Z,15.53
2017-12-01T15:31:43.328Z,16.30
2017-12-01T15:34:10.857Z,16.03
2017-12-01T15:36:38.364Z,18.47
2017-12-01T15:39:05.883Z,16.30
2017-12-01T15:41:33.386Z,16.57
2017-12-01T15:44:00.939Z,17.70
2017-12-01T15:46:28.451Z,19.77
2017-12-01T15:48:55.964Z,20.70
2017-12-01T15:51:24.264Z,18.50
2017-12-01T15:53:51.783Z,22.93
2017-12-01T15:56:19.310Z,15.27
2017-12-01T15:58:46.810Z,18.10
2017-12-01T16:01:14.337Z,16.77
2017-12-01T16:03:41.843Z,17.60
2017-12-01T16:06:10.120Z,19.53
2017-12-01T16:08:38.409Z,19.27
2017-12-01T16:11:05.944Z,20.30
2017-12-01T16:13:34.269Z,26.60
2017-12-01T16:16:01.783Z,26.60
2017-12-01T16:18:30.083Z,23.60
2017-12-01T16:20:57.587Z,25.57
2017-12-01T16:23:25.119Z,24.30
2017-12-01T16:25:52.626Z,28.07
2017-12-01T16:28:20.911Z,26.10
2017-12-01T16:30:49.198Z,28.57
2017-12-01T16:33:17.472Z,28.30
2017-12-01T16:35:45.759Z,28.30
2017-12-01T16:38:13.268Z,29.80
2017-12-01T16:40:40.815Z,29.50
2017-12-01T16:43:08.322Z,25.10
2017-12-01T16:45:36.596Z,28.33
2017-12-01T16:48:04.887Z,30.40
2017-12-01T16:50:32.408Z,31.10
2017-12-01T16:52:59.939Z,32.73
2017-12-01T16:55:27.443Z,37.00
2017-12-01T16:57:55.726Z,33.83
2017-12-01T17:00:24.019Z,33.20
2017-12-01T17:02:51.531Z,32.80
2017-12-01T17:05:19.060Z,37.00
2017-12-01T17:07:46.572Z,36.43
2017-12-01T17:10:14.895Z,37.23
2017-12-01T17:12:42.408Z,32.43
2017-12-01T17:15:10.716Z,35.70
2017-12-01T17:17:38.240Z,34.20
2017-12-01T17:20:06.520Z,44.97
2017-12-01T17:22:34.831Z,38.57
2017-12-01T17:25:02.343Z,33.00
2017-12-01T17:27:30.615Z,36.67
2017-12-01T17:29:58.143Z,38.50
2017-12-01T17:32:25.650Z,35.57
2017-12-01T17:34:53.955Z,41.93
2017-12-01T17:37:21.459Z,46.60
2017-12-01T17:39:49.004Z,42.87
2017-12-01T17:42:16.526Z,47.37
2017-12-01T17:44:44.039Z,52.00
2017-12-01T17:47:11.702Z,41.97
2017-12-01T17:49:39.211Z,41.17
2017-12-01T17:52:06.762Z,44.70
2017-12-01T17:54:34.287Z,45.60
2017-12-01T17:57:02.572Z,48.13
2017-12-01T17:59:30.863Z,41.53
2017-12-01T18:01:58.370Z,37.80
2017-12-01T18:04:25.890Z,46.10
2017-12-01T18:06:53.407Z,43.80
2017-12-01T18:09:20.931Z,40.90
2017-12-01T18:11:48.443Z,48.00
2017-12-01T18:14:15.975Z,52.03
2017-12-01T18:16:43.483Z,54.23
2017-12-01T18:19:11.011Z,44.87
2017-12-01T18:21:39.290Z,55.17
2017-12-01T18:24:07.579Z,52.30
2017-12-01T18:26:35.087Z,58.67
2017-12-01T18:29:02.612Z,62.60
2017-12-01T18:31:30.127Z,58.07
2017-12-01T18:33:58.419Z,67.13
2017-12-01T18:36:26.709Z,59.87
2017-12-01T18:38:54.218Z,60.43
2017-12-01T18:41:21.797Z,71.33
2017-12-01T18:43:49.320Z,66.30
2017-12-01T18:46:16.835Z,71.60
2017-12-01T18:48:44.360Z,64.87
2017-12-01T18:51:11.879Z,69.60
2017-12-01T18:53:39.402Z,60.37
2017-12-01T18:56:07.679Z,59.80
2017-12-01T18:58:36.000Z,54.80
2017-12-01T19:01:03.515Z,52.50
2017-12-01T19:03:31.797Z,58.20
2017-12-01T19:05:59.361Z,59.73
2017-12-01T19:08:26.890Z,65.77
2017-12-01T19:10:54.431Z,53.90
2017-12-01T19:13:21.968Z,55.47
2017-12-01T19:15:49.588Z,57.13
2017-12-01T19:18:17.879Z,58.70
2017-12-01T19:20:45.399Z,54.77
2017-12-01T19:23:12.947Z,56.87
2017-12-01T19:25:40.460Z,51.30
2017-12-01T19:28:08.005Z,58.20
2017-12-01T19:30:35.527Z,51.00
2017-12-01T19:33:03.077Z,50.93
2017-12-01T19:35:30.611Z,48.10
2017-12-01T19:37:58.118Z,50.67
2017-12-01T19:40:26.384Z,45.53
2017-12-01T19:42:53.948Z,47.93
2017-12-01T19:45:22.257Z,55.43
2017-12-01T19:47:49.774Z,59.40
2017-12-01T19:50:17.279Z,57.50
2017-12-01T19:52:44.798Z,57.13
2017-12-01T19:55:12.307Z,66.07
2017-12-01T19:57:39.834Z,57.47
2017-12-01T20:00:08.107Z,64.67
2017-12-01T20:02:36.406Z,50.13
2017-12-01T20:05:03.910Z,54.43
2017-12-01T20:07:31.410Z,56.70
2017-12-01T20:09:58.930Z,44.77
2017-12-01T20:12:26.439Z,57.60
2017-12-01T20:14:53.954Z,45.20
2017-12-01T20:17:21.462Z,49.53
2017-12-01T20:19:48.991Z,49.33
2017-12-01T20:22:17.266Z,47.67
2017-12-01T20:24:45.552Z,50.70
2017-12-01T20:27:13.060Z,45.40
2017-12-01T20:29:40.595Z,42.80
2017-12-01T20:32:08.102Z,53.27
2017-12-01T20:34:35.605Z,50.80
2017-12-01T20:37:03.122Z,49.83
2017-12-01T20:39:31.390Z,53.50
2017-12-01T20:41:58.975Z,51.27
2017-12-01T20:44:26.489Z,55.60
2017-12-01T20:46:54.070Z,47.60
2017-12-01T20:49:22.354Z,50.73
2017-12-01T20:51:50.627Z,53.60
2017-12-01T20:54:18.914Z,52.37
2017-12-01T20:56:47.255Z,50.13
2017-12-01T20:59:14.779Z,51.87
2017-12-01T21:01:42.286Z,48.90
2017-12-01T21:04:09.820Z,52.53
2017-12-01T21:06:37.327Z,52.27
2017-12-01T21:09:05.594Z,56.43
2017-12-01T21:11:33.886Z,52.83
2017-12-01T21:14:01.426Z,56.97
2017-12-01T21:16:29.719Z,57.30
2017-12-01T21:18:57.218Z,59.73
2017-12-01T21:21:24.739Z,62.40
2017-12-01T21:23:52.243Z,61.60
2017-12-01T21:26:19.809Z,67.30
2017-12-01T21:28:47.311Z,74.27
2017-12-01T21:31:14.831Z,63.27
2017-12-01T21:33:42.330Z,70.00
2017-12-01T21:36:09.863Z,68.13
2017-12-01T21:38:38.485Z,68.03
2017-12-01T21:41:05.988Z,64.37
2017-12-01T21:43:33.522Z,61.87
2017-12-01T21:46:01.799Z,68.20
2017-12-01T21:48:29.319Z,61.90
2017-12-01T21:50:56.822Z,68.17
2017-12-01T21:53:24.343Z,65.43
2017-12-01T21:55:51.846Z,72.83
2017-12-01T21:58:19.369Z,74.37
2017-12-01T22:00:46.899Z,62.43
2017-12-01T22:03:15.175Z,64.80
2017-12-01T22:05:43.463Z,64.70
2017-12-01T22:08:10.966Z,65.30
2017-12-01T22:10:38.555Z,66.90
2017-12-01T22:13:06.842Z,62.73
2017-12-01T22:15:36.311Z,60.50
2017-12-01T22:18:03.827Z,59.60
2017-12-01T22:20:31.361Z,58.43
2017-12-01T22:22:59.631Z,58.33
2017-12-01T22:25:27.899Z,59.50
2017-12-01T22:27:55.415Z,62.00
2017-12-01T22:30:22.915Z,63.73
2017-12-01T22:32:50.435Z,68.67
2017-12-01T22:35:17.948Z,70.17
2017-12-01T22:37:46.259Z,62.57
2017-12-01T22:40:13.768Z,64.03
2017-12-01T22:42:41.272Z,65.37
2017-12-01T22:45:08.790Z,61.47
2017-12-01T22:47:37.062Z,70.73
2017-12-01T22:50:04.583Z,64.37
2017-12-01T22:52:32.850Z,72.70
2017-12-01T22:55:00.387Z,68.07
2017-12-01T22:57:27.896Z,73.40
2017-12-01T22:59:55.399Z,77.07
2017-12-01T23:02:22.919Z,76.57
2017-12-01T23:04:50.423Z,75.03
2017-12-01T23:07:17.948Z,72.27
2017-12-01T23:09:46.218Z,80.43
2017-12-01T23:12:13.752Z,71.63
2017-12-01T23:14:41.263Z,74.10
2017-12-01T23:17:08.762Z,81.87
2017-12-01T23:19:36.284Z,68.63
2017-12-01T23:22:03.791Z,69.40
2017-12-01T23:24:31.310Z,79.13
2017-12-01T23:26:58.814Z,75.37
2017-12-01T23:29:26.335Z,87.47
2017-12-01T23:31:53.839Z,64.37
2017-12-01T23:34:21.379Z,61.00
2017-12-01T23:36:48.887Z,73.30
2017-12-01T23:39:16.395Z,77.33
2017-12-01T23:41:43.915Z,72.27
2017-12-01T23:44:11.424Z,72.07
2017-12-01T23:46:38.986Z,79.90
2017-12-01T23:49:07.421Z,76.23
2017-12-01T23:51:34.967Z,76.13
2017-12-01T23:54:02.466Z,68.27
2017-12-01T23:56:30.735Z,74.20
2017-12-01T23:58:58.258Z,73.53
